DBN Airport (W H 'Bud' Barron) Information

FAA: DBN - ICAO: KDBN

DBN Airport Location

State Georgia
County Laurens
City Dublin
DBN Airport is 3 miles northwest of Dublin, GA.
Latitude 32-33-53.0000N
Longitude 082-59-05.9000W
Elevation 311ft

KDBN Airport METARs

METAR KDBN 200315Z AUTO 00000KT 7SM CLR 10/08 A3027 RMK AO2
Altimeter 30.27"
Temperature 10.0°C (50.0°F)
Wind 0° at 0KT
Clouds Skies are clear.
Visibility 7.0mi
Time observed: 2021-10-20T03:15:00Z

DBN Airport Details

Status Operational
Activation February 1944
Ownership Public
Usage Public
Chart ATLANTA
ATC on-site No
Beacon schedule sunset-sunrise
Beacon color clear green

DBN Airport Contacts

Owner LAURENS COUNTY
Owner address P O BOX 2011, DUBLIN, GA 31040
Owner phone 478-272-4755
Manager MARK BAGWELL
Manager address 593 OLD MTN RD, KENNESAW, GA 30152
Manager phone 424-271-2677

DBN Airport (W H 'Bud' Barron) Radio Frequencies

DBN (Airport) Radio Frequencies

UNICOM 122.7
Common traffic advisory frequency (CTAF) 122.7